Time;durP1;ratioP1;P1;durP2;ratioP2;P2;SDS_P1;SDS_P2;PMS_P1;PMS_P2;Temp;Humidity;BMP_temperature;BMP_pressure;BME280_temperature;BME280_humidity;BME280_pressure;Samples;Min_cycle;Max_cycle;Signal;HPM_P1;HPM_P2
2022/10/31 00:01:44;;;;;;;;;;;;;;;21.76;63.94;101472.22;7280120;19;153635;-56
2022/10/31 00:04:12;;;;;;;;;;;;;;;21.73;63.96;101466.03;7281352;19;152306;-56
2022/10/31 00:06:38;;;;;;;;;;;;;;;21.73;64.19;101471.66;7281338;19;153005;-56
2022/10/31 00:09:05;;;;;;;;;;;;;;;21.73;64.36;101470.81;7284331;19;153968;-56
2022/10/31 00:11:33;;;;;;;;;;;;;;;21.73;64.08;101473.63;7282312;19;153084;-56
2022/10/31 00:13:59;;;;;;;;;;;;;;;21.72;64.08;101477.59;7287855;19;152317;-56
2022/10/31 00:16:28;;;;;;;;;;;;;;;21.73;64.22;101479.25;7283371;19;152728;-55
2022/10/31 00:18:56;;;;;;;;;;;;;;;21.71;64.26;101471.13;7282475;19;153186;-55
2022/10/31 00:21:24;;;;;;;;;;;;;;;21.72;64.31;101478.44;7281296;19;153572;-56
2022/10/31 00:23:51;;;;;;;;;;;;;;;21.71;64.58;101479.56;7282199;19;152187;-55
2022/10/31 00:26:18;;;;;;;;;;;;;;;21.72;64.68;101484.06;7280855;19;152548;-55
2022/10/31 00:28:45;;;;;;;;;;;;;;;21.70;64.76;101475.09;7278575;19;154036;-55
2022/10/31 00:31:12;;;;;;;;;;;;;;;21.69;64.88;101469.75;7281712;19;152027;-56
2022/10/31 00:33:40;;;;;;;;;;;;;;;21.70;64.80;101474.25;7284275;19;153560;-55
2022/10/31 00:36:07;;;;;;;;;;;;;;;21.69;65.08;101475.38;7288687;19;153475;-56
2022/10/31 00:38:34;;;;;;;;;;;;;;;21.69;65.18;101481.84;7281962;19;152855;-55
2022/10/31 00:41:01;;;;;;;;;;;;;;;21.66;65.19;101479.66;7282088;19;152769;-56
2022/10/31 00:43:28;;;;;;;;;;;;;;;21.68;64.94;101476.53;7278295;19;152675;-56
2022/10/31 00:45:55;;;;;;;;;;;;;;;21.66;64.91;101474.03;7282362;19;154765;-57
2022/10/31 00:48:22;;;;;;;;;;;;;;;21.66;65.17;101476.00;7280407;19;153200;-56
2022/10/31 00:50:49;;;;;;;;;;;;;;;21.65;65.50;101472.34;7281498;19;152594;-56
2022/10/31 00:53:16;;;;;;;;;;;;;;;21.65;65.39;101469.53;7280194;19;153598;-57
2022/10/31 00:55:43;;;;;;;;;;;;;;;21.64;65.37;101475.47;7282584;19;152481;-57
2022/10/31 00:58:10;;;;;;;;;;;;;;;21.64;65.39;101464.22;7286979;19;152354;-57
2022/10/31 01:00:39;;;;;;;;;;;;;;;21.64;65.36;101469.84;7282231;19;153296;-56
2022/10/31 01:03:06;;;;;;;;;;;;;;;21.64;65.91;101473.50;7279868;19;152434;-56
2022/10/31 01:05:33;;;;;;;;;;;;;;;21.62;65.74;101461.69;7281795;19;152817;-57
2022/10/31 01:08:00;;;;;;;;;;;;;;;21.63;65.93;101471.81;7281416;19;153407;-56
2022/10/31 01:10:27;;;;;;;;;;;;;;;21.61;65.69;101468.47;7283172;19;152090;-56
2022/10/31 01:12:54;;;;;;;;;;;;;;;21.62;65.91;101464.50;7280033;19;153667;-56
2022/10/31 01:15:22;;;;;;;;;;;;;;;21.62;66.11;101466.50;7281213;19;153386;-56
2022/10/31 01:17:49;;;;;;;;;;;;;;;21.60;65.78;101464.00;7282395;19;152194;-56
2022/10/31 01:20:16;;;;;;;;;;;;;;;21.61;66.32;101468.47;7286112;19;154026;-56
2022/10/31 01:22:43;;;;;;;;;;;;;;;21.60;65.97;101469.63;7279735;19;152525;-56
2022/10/31 01:25:10;;;;;;;;;;;;;;;21.59;66.58;101458.66;7282869;19;154018;-56
2022/10/31 01:27:37;;;;;;;;;;;;;;;21.60;66.58;101465.97;7277073;19;154057;-56
2022/10/31 01:30:05;;;;;;;;;;;;;;;21.56;66.27;101460.13;7281585;19;152443;-56
2022/10/31 01:32:32;;;;;;;;;;;;;;;21.59;66.46;101461.47;7282334;19;153238;-56
2022/10/31 01:34:59;;;;;;;;;;;;;;;21.57;66.57;101463.75;7279053;19;153247;-57
2022/10/31 01:37:26;;;;;;;;;;;;;;;21.56;66.60;101462.94;7282783;19;151993;-56
2022/10/31 01:39:53;;;;;;;;;;;;;;;21.58;66.82;101456.97;7288206;19;152616;-56
2022/10/31 01:42:22;;;;;;;;;;;;;;;21.56;66.69;101453.66;7290588;19;153941;-56
2022/10/31 01:44:52;;;;;;;;;;;;;;;21.56;66.81;101462.94;7285238;19;154102;-57
2022/10/31 01:47:21;;;;;;;;;;;;;;;21.58;66.36;101459.78;7284111;19;152998;-57
2022/10/31 01:49:48;;;;;;;;;;;;;;;21.58;66.74;101452.19;7286914;19;152194;-57
2022/10/31 01:52:18;;;;;;;;;;;;;;;21.57;66.71;101452.53;7288325;19;153162;-57
2022/10/31 01:54:47;;;;;;;;;;;;;;;21.56;66.48;101450.84;7286062;19;152983;-56
2022/10/31 01:57:15;;;;;;;;;;;;;;;21.53;66.72;101452.25;7286097;19;152302;-57
2022/10/31 01:59:45;;;;;;;;;;;;;;;21.54;66.79;101451.13;7284770;19;153131;-57
2022/10/31 02:02:13;;;;;;;;;;;;;;;21.54;66.82;101456.75;7291553;19;154071;-57
2022/10/31 02:04:41;;;;;;;;;;;;;;;21.54;66.89;101459.56;7284723;19;152467;-57
2022/10/31 02:07:10;;;;;;;;;;;;;;;21.53;67.27;101449.44;7284604;19;152633;-57
2022/10/31 02:09:37;;;;;;;;;;;;;;;21.54;67.29;101450.28;7286331;19;152776;-56
2022/10/31 02:12:05;;;;;;;;;;;;;;;21.55;67.28;101446.34;7283596;19;152648;-56
2022/10/31 02:14:33;;;;;;;;;;;;;;;21.54;67.39;101444.66;7278200;19;152911;-56
2022/10/31 02:17:00;;;;;;;;;;;;;;;21.54;67.43;101444.66;7285245;19;153174;-56
2022/10/31 02:19:33;;;;;;;;;;;;;;;21.54;67.67;101444.66;7288493;19;151887;-56
2022/10/31 02:22:04;;;;;;;;;;;;;;;21.53;67.80;101440.22;7286560;19;153585;-56
2022/10/31 02:24:32;;;;;;;;;;;;;;;21.52;67.89;101444.16;7292718;19;152051;-56
2022/10/31 02:27:05;;;;;;;;;;;;;;;21.53;67.69;101443.03;7283800;19;154179;-55
2022/10/31 02:29:33;;;;;;;;;;;;;;;21.51;68.13;101437.69;7283968;19;152196;-57
2022/10/31 02:32:04;;;;;;;;;;;;;;;21.53;67.90;101437.41;7287102;19;151955;-56
2022/10/31 02:34:31;;;;;;;;;;;;;;;21.54;68.15;101436.22;7283199;19;153937;-55
2022/10/31 02:37:01;;;;;;;;;;;;;;;21.53;67.88;101440.22;7286382;19;152373;-56
2022/10/31 02:39:36;;;;;;;;;;;;;;;21.52;67.97;101439.38;7287755;19;153524;-55
2022/10/31 02:42:04;;;;;;;;;;;;;;;21.52;68.06;101438.53;7282244;19;152267;-55
2022/10/31 02:44:34;;;;;;;;;;;;;;;21.53;68.27;101437.41;7281754;19;152338;-56
2022/10/31 02:47:01;;;;;;;;;;;;;;;21.52;68.38;101439.38;7292998;19;153299;-55
2022/10/31 02:49:31;;;;;;;;;;;;;;;21.51;68.18;101428.41;7285832;19;153090;-56
2022/10/31 02:51:58;;;;;;;;;;;;;;;21.52;68.58;101430.09;7286054;19;152285;-55
2022/10/31 02:54:27;;;;;;;;;;;;;;;21.51;68.07;101434.03;7284123;19;152358;-56
2022/10/31 02:56:57;;;;;;;;;;;;;;;21.50;68.33;101424.75;7283981;19;153242;-56
2022/10/31 02:59:25;;;;;;;;;;;;;;;21.50;68.73;101421.13;7282511;19;152599;-57
2022/10/31 03:01:55;;;;;;;;;;;;;;;21.50;68.26;101419.13;7282410;19;152812;-57
2022/10/31 03:04:25;;;;;;;;;;;;;;;21.50;68.50;101412.69;7279845;19;153476;-56
2022/10/31 03:07:03;;;;;;;;;;;;;;;21.50;68.55;101416.31;7283324;19;153783;-56
2022/10/31 03:09:30;;;;;;;;;;;;;;;21.48;68.70;101412.16;7292460;19;153355;-57
2022/10/31 03:12:01;;;;;;;;;;;;;;;21.49;68.25;101413.81;7281952;19;152447;-57
2022/10/31 03:14:35;;;;;;;;;;;;;;;21.49;68.73;101419.44;7283163;19;152724;-56
2022/10/31 03:17:05;;;;;;;;;;;;;;;21.48;68.74;101418.63;7285548;19;152233;-56
2022/10/31 03:19:37;;;;;;;;;;;;;;;21.48;68.23;101421.44;7286201;19;153059;-56
2022/10/31 03:22:07;;;;;;;;;;;;;;;21.47;68.63;101418.91;7285604;19;154031;-56
2022/10/31 03:24:36;;;;;;;;;;;;;;;21.46;68.49;101417.25;7282511;19;151909;-57
2022/10/31 03:27:04;;;;;;;;;;;;;;;21.44;68.53;101409.09;7281866;19;152884;-56
2022/10/31 03:29:32;;;;;;;;;;;;;;;21.45;68.63;101412.75;7283178;19;153927;-56
2022/10/31 03:32:01;;;;;;;;;;;;;;;21.44;68.62;101414.72;7291435;19;152737;-56
2022/10/31 03:34:30;;;;;;;;;;;;;;;21.42;68.97;101402.97;7281408;19;153616;-55
2022/10/31 03:36:59;;;;;;;;;;;;;;;21.44;68.54;101408.28;7284719;19;152377;-55
2022/10/31 03:39:26;;;;;;;;;;;;;;;21.44;69.11;101413.91;7284636;19;153412;-55
2022/10/31 03:41:56;;;;;;;;;;;;;;;21.43;68.83;101410.25;7280074;19;154794;-56
2022/10/31 03:44:24;;;;;;;;;;;;;;;21.43;68.67;101406.63;7281148;19;152438;-55
2022/10/31 03:46:51;;;;;;;;;;;;;;;21.41;68.83;101406.91;7284084;19;152720;-55
2022/10/31 03:49:18;;;;;;;;;;;;;;;21.42;68.70;101404.94;7282033;19;153231;-55
2022/10/31 03:51:48;;;;;;;;;;;;;;;21.41;68.74;101406.06;7284507;19;152820;-55
2022/10/31 03:54:18;;;;;;;;;;;;;;;21.41;69.40;101417.31;7289330;19;152785;-56
2022/10/31 03:56:48;;;;;;;;;;;;;;;21.38;69.25;101406.69;7281096;19;153589;-55
2022/10/31 03:59:18;;;;;;;;;;;;;;;21.38;69.13;101407.53;7284163;19;153336;-56
2022/10/31 04:01:48;;;;;;;;;;;;;;;21.41;69.08;101408.88;7281106;19;154537;-56
2022/10/31 04:04:16;;;;;;;;;;;;;;;21.37;69.35;101405.00;7282725;19;152445;-55
2022/10/31 04:06:45;;;;;;;;;;;;;;;21.37;69.40;101407.81;7281224;19;154128;-56
2022/10/31 04:09:13;;;;;;;;;;;;;;;21.40;68.94;101410.00;7283714;19;154479;-56
2022/10/31 04:11:45;;;;;;;;;;;;;;;21.39;69.31;101417.63;7283084;19;152135;-56
2022/10/31 04:14:12;;;;;;;;;;;;;;;21.37;69.41;101410.63;7287944;19;152320;-56
2022/10/31 04:16:42;;;;;;;;;;;;;;;21.36;68.91;101408.94;7283187;19;152282;-56
2022/10/31 04:19:09;;;;;;;;;;;;;;;21.35;68.99;101408.09;7282424;19;154702;-56
2022/10/31 04:21:36;;;;;;;;;;;;;;;21.35;68.94;101402.47;7282974;19;153163;-56
2022/10/31 04:24:03;;;;;;;;;;;;;;;21.34;69.15;101400.84;7283230;19;152182;-55
2022/10/31 04:26:30;;;;;;;;;;;;;;;21.35;69.18;101399.66;7282891;19;152714;-56
2022/10/31 04:28:57;;;;;;;;;;;;;;;21.34;69.28;101400.00;7281091;19;154301;-56
2022/10/31 04:31:23;;;;;;;;;;;;;;;21.35;69.03;101401.69;7281371;19;152178;-56
2022/10/31 04:33:50;;;;;;;;;;;;;;;21.34;69.33;101398.03;7282752;19;153910;-56
2022/10/31 04:36:17;;;;;;;;;;;;;;;21.32;69.49;101394.66;7289511;19;153431;-56
2022/10/31 04:38:44;;;;;;;;;;;;;;;21.32;69.45;101389.03;7282992;19;153791;-56
2022/10/31 04:41:11;;;;;;;;;;;;;;;21.32;69.07;101391.03;7281712;19;153858;-56
2022/10/31 04:43:38;;;;;;;;;;;;;;;21.32;69.28;101391.03;7278813;19;152762;-56
2022/10/31 04:46:05;;;;;;;;;;;;;;;21.31;69.22;101384.56;7280693;19;153368;-55
2022/10/31 04:48:32;;;;;;;;;;;;;;;21.30;69.33;101380.09;7280424;19;153605;-56
2022/10/31 04:50:59;;;;;;;;;;;;;;;21.30;69.74;101377.28;7283745;19;152133;-55
2022/10/31 04:53:27;;;;;;;;;;;;;;;21.29;69.36;101376.44;7282810;19;154216;-56
2022/10/31 04:55:53;;;;;;;;;;;;;;;21.27;69.47;101375.91;7280268;19;153887;-56
2022/10/31 04:58:20;;;;;;;;;;;;;;;21.28;69.33;101376.75;7287427;19;153231;-56
2022/10/31 05:00:47;;;;;;;;;;;;;;;21.28;69.63;101374.78;7281593;19;154574;-56
2022/10/31 05:03:14;;;;;;;;;;;;;;;21.27;69.85;101370.28;7282052;19;152089;-55
2022/10/31 05:05:41;;;;;;;;;;;;;;;21.26;69.44;101377.03;7281122;19;155456;-55
2022/10/31 05:08:08;;;;;;;;;;;;;;;21.28;69.57;101365.50;7281502;19;153909;-55
2022/10/31 05:10:35;;;;;;;;;;;;;;;21.27;69.72;101373.09;7283834;19;151976;-55
2022/10/31 05:13:02;;;;;;;;;;;;;;;21.26;69.51;101374.22;7275060;19;153972;-56
2022/10/31 05:15:30;;;;;;;;;;;;;;;21.27;69.79;101366.63;7279177;19;152859;-56
2022/10/31 05:17:58;;;;;;;;;;;;;;;21.27;69.94;101378.72;7279922;19;152771;-56
2022/10/31 05:20:26;;;;;;;;;;;;;;;21.25;70.15;101368.94;7287310;19;153788;-56
2022/10/31 05:22:54;;;;;;;;;;;;;;;21.26;70.22;101368.59;7279772;19;152304;-57
2022/10/31 05:25:22;;;;;;;;;;;;;;;21.26;70.11;101364.94;7280974;19;152797;-56
2022/10/31 05:27:49;;;;;;;;;;;;;;;21.26;70.45;101362.97;7276288;19;153912;-56
2022/10/31 05:30:19;;;;;;;;;;;;;;;21.25;70.46;101363.31;7278893;19;152677;-56
2022/10/31 05:32:48;;;;;;;;;;;;;;;21.26;70.47;101359.34;7278066;19;153223;-56
2022/10/31 05:35:17;;;;;;;;;;;;;;;21.23;70.37;101351.53;7279298;19;154347;-56
2022/10/31 05:37:43;;;;;;;;;;;;;;;21.23;70.47;101348.72;7279817;19;152498;-56
2022/10/31 05:40:12;;;;;;;;;;;;;;;21.23;70.81;101348.72;7281375;19;153253;-56
2022/10/31 05:42:40;;;;;;;;;;;;;;;21.23;70.80;101355.16;7284234;19;153616;-56
2022/10/31 05:45:08;;;;;;;;;;;;;;;21.20;71.22;101347.34;7277018;19;153116;-56
2022/10/31 05:47:35;;;;;;;;;;;;;;;21.22;70.85;101352.66;7279689;19;153401;-56
2022/10/31 05:50:02;;;;;;;;;;;;;;;21.21;71.07;101351.00;7278014;19;152432;-56
2022/10/31 05:52:28;;;;;;;;;;;;;;;21.20;71.31;101350.16;7281308;19;151681;-56
2022/10/31 05:54:55;;;;;;;;;;;;;;;21.21;71.34;101348.19;7279053;19;153924;-56
2022/10/31 05:57:22;;;;;;;;;;;;;;;21.21;71.50;101345.38;7279019;19;152685;-56
2022/10/31 05:59:52;;;;;;;;;;;;;;;21.21;71.43;101351.00;7280016;19;154624;-56
2022/10/31 06:02:21;;;;;;;;;;;;;;;21.20;71.67;101349.31;7279845;19;153985;-56
2022/10/31 06:04:48;;;;;;;;;;;;;;;21.20;71.63;101338.91;7284785;19;152651;-56
2022/10/31 06:07:15;;;;;;;;;;;;;;;21.20;71.53;101346.50;7277227;19;152554;-56
2022/10/31 06:09:41;;;;;;;;;;;;;;;21.21;71.85;101351.00;7278275;19;151973;-56
2022/10/31 06:12:08;;;;;;;;;;;;;;;21.20;71.64;101338.09;7277378;19;152762;-56
2022/10/31 06:14:35;;;;;;;;;;;;;;;21.18;71.85;101329.09;7277598;19;153200;-56
2022/10/31 06:17:02;;;;;;;;;;;;;;;21.17;72.26;101336.69;7279061;19;152480;-56
2022/10/31 06:19:29;;;;;;;;;;;;;;;21.18;71.96;101335.56;7280967;19;153450;-56
2022/10/31 06:21:56;;;;;;;;;;;;;;;21.19;72.00;101336.41;7279213;19;152962;-56
2022/10/31 06:24:23;;;;;;;;;;;;;;;21.17;72.00;101333.88;7288741;19;151793;-56
2022/10/31 06:26:50;;;;;;;;;;;;;;;21.18;72.02;101329.09;7279427;19;153870;-55
2022/10/31 06:29:16;;;;;;;;;;;;;;;21.19;72.21;101331.63;7286060;19;152975;-55
2022/10/31 06:31:43;;;;;;;;;;;;;;;21.21;71.68;101336.94;7285344;19;152579;-56
2022/10/31 06:34:10;;;;;;;;;;;;;;;21.21;71.98;101339.75;7285839;19;153405;-56
2022/10/31 06:36:37;;;;;;;;;;;;;;;21.23;71.50;101329.88;7287665;19;152349;-56
2022/10/31 06:39:04;;;;;;;;;;;;;;;21.28;71.82;101326.16;7287610;19;153656;-56
2022/10/31 06:41:31;;;;;;;;;;;;;;;21.32;72.42;101334.81;7284216;19;153774;-56
2022/10/31 06:43:57;;;;;;;;;;;;;;;21.35;72.67;101320.97;7282080;19;152000;-56
2022/10/31 06:46:30;;;;;;;;;;;;;;;21.39;72.63;101330.50;7289056;19;153744;-56
2022/10/31 06:48:57;;;;;;;;;;;;;;;21.43;72.60;101325.09;7285434;19;152066;-56
2022/10/31 06:51:23;;;;;;;;;;;;;;;21.47;72.77;101326.97;7286409;19;154914;-56
2022/10/31 06:53:50;;;;;;;;;;;;;;;21.51;73.06;101328.03;7281642;19;153909;-56
2022/10/31 06:56:17;;;;;;;;;;;;;;;21.58;73.31;101319.19;7285457;19;152008;-57
2022/10/31 06:58:44;;;;;;;;;;;;;;;21.63;73.26;101328.38;7285283;19;153448;-56
2022/10/31 07:01:11;;;;;;;;;;;;;;;21.69;73.04;101329.97;7285786;19;153293;-55
2022/10/31 07:03:38;;;;;;;;;;;;;;;21.74;73.04;101320.63;7284965;19;152615;-56
2022/10/31 07:06:05;;;;;;;;;;;;;;;21.79;73.48;101319.69;7284076;19;153301;-56
2022/10/31 07:08:32;;;;;;;;;;;;;;;21.83;73.29;101315.13;7291973;19;154127;-56
2022/10/31 07:10:59;;;;;;;;;;;;;;;21.88;73.12;101315.88;7285984;19;153009;-57
2022/10/31 07:13:26;;;;;;;;;;;;;;;21.93;73.01;101312.16;7281278;19;156441;-57
2022/10/31 07:15:54;;;;;;;;;;;;;;;21.96;72.78;101311.53;7285005;19;152022;-57
2022/10/31 07:18:21;;;;;;;;;;;;;;;22.01;72.96;101319.88;7284942;19;152628;-57
2022/10/31 07:20:48;;;;;;;;;;;;;;;22.04;73.37;101313.63;7282147;19;154126;-56
2022/10/31 07:23:15;;;;;;;;;;;;;;;22.07;72.62;101311.06;7282946;19;152160;-56
2022/10/31 07:25:42;;;;;;;;;;;;;;;22.11;72.02;101316.91;7284866;19;153411;-57
2022/10/31 07:28:09;;;;;;;;;;;;;;;22.13;71.68;101308.97;7279833;19;153377;-57
2022/10/31 07:30:37;;;;;;;;;;;;;;;22.15;71.17;101309.50;7292434;19;152293;-56
2022/10/31 07:33:04;;;;;;;;;;;;;;;22.07;66.52;101310.22;7280996;19;154815;-55
2022/10/31 07:35:32;;;;;;;;;;;;;;;21.91;65.30;101315.25;7283042;19;152288;-57
2022/10/31 07:38:06;;;;;;;;;;;;;;;21.90;63.00;101312.72;7284786;19;153429;-57
2022/10/31 07:40:33;;;;;;;;;;;;;;;21.77;61.98;101305.94;7282673;19;153381;-56
2022/10/31 07:43:00;;;;;;;;;;;;;;;21.68;61.15;101311.44;7277825;19;152403;-57
2022/10/31 07:45:27;;;;;;;;;;;;;;;21.63;60.79;101305.06;7283933;19;153789;-56
2022/10/31 07:47:54;;;;;;;;;;;;;;;21.61;61.13;101310.16;7282542;19;154033;-56
2022/10/31 07:50:22;;;;;;;;;;;;;;;21.54;60.50;101304.09;7282830;19;151872;-57
2022/10/31 07:52:57;;;;;;;;;;;;;;;21.46;60.51;101305.63;7289995;19;153413;-57
2022/10/31 07:55:24;;;;;;;;;;;;;;;21.41;60.75;101304.88;7284094;19;152471;-56
2022/10/31 07:57:54;;;;;;;;;;;;;;;21.39;60.67;101307.16;7282143;19;153098;-56
2022/10/31 08:00:21;;;;;;;;;;;;;;;21.32;60.66;101298.25;7282021;19;155663;-56
2022/10/31 08:02:48;;;;;;;;;;;;;;;21.24;60.46;101297.00;7283347;19;152351;-56
2022/10/31 08:05:15;;;;;;;;;;;;;;;21.22;60.92;101304.88;7282640;19;153800;-57
2022/10/31 08:07:42;;;;;;;;;;;;;;;21.16;60.82;101303.31;7281453;19;153878;-56
2022/10/31 08:10:09;;;;;;;;;;;;;;;21.10;61.17;101304.47;7284734;19;153639;-57
2022/10/31 08:12:36;;;;;;;;;;;;;;;21.05;61.02;101298.94;7281753;19;153566;-56
2022/10/31 08:15:03;;;;;;;;;;;;;;;20.99;61.46;101302.94;7288991;19;151812;-56
2022/10/31 08:17:30;;;;;;;;;;;;;;;20.97;61.33;101302.44;7282470;19;152002;-56
2022/10/31 08:19:57;;;;;;;;;;;;;;;20.89;61.65;101305.91;7281536;19;153735;-56
2022/10/31 08:22:24;;;;;;;;;;;;;;;20.88;61.73;101296.66;7281700;19;152454;-56
2022/10/31 08:24:51;;;;;;;;;;;;;;;20.98;62.36;101296.50;7283445;19;152593;-55
2022/10/31 08:27:18;;;;;;;;;;;;;;;21.05;63.49;101299.75;7275784;19;154096;-56
2022/10/31 08:29:45;;;;;;;;;;;;;;;21.12;63.57;101297.41;7281833;19;152622;-57
2022/10/31 08:32:12;;;;;;;;;;;;;;;21.11;63.74;101289.28;7280989;19;152440;-57
2022/10/31 08:34:39;;;;;;;;;;;;;;;21.13;63.77;101298.28;7286750;19;152577;-57
2022/10/31 08:37:06;;;;;;;;;;;;;;;21.14;63.67;101292.34;7282615;19;152085;-58
2022/10/31 08:39:33;;;;;;;;;;;;;;;21.14;63.87;101297.97;7280397;19;154126;-57
2022/10/31 08:42:00;;;;;;;;;;;;;;;21.16;63.76;101289.25;7279484;19;153304;-57
2022/10/31 08:44:27;;;;;;;;;;;;;;;21.18;63.83;101286.97;7282413;19;152780;-57
2022/10/31 08:46:54;;;;;;;;;;;;;;;21.19;63.75;101281.03;7278530;19;152674;-56
2022/10/31 08:49:21;;;;;;;;;;;;;;;21.19;63.82;101275.41;7283239;19;151918;-56
2022/10/31 08:51:48;;;;;;;;;;;;;;;21.20;64.34;101276.25;7282864;19;152985;-57
2022/10/31 08:54:15;;;;;;;;;;;;;;;21.19;64.21;101268.97;7282426;19;154163;-57
2022/10/31 08:56:42;;;;;;;;;;;;;;;21.19;64.26;101266.16;7287859;19;152195;-57
2022/10/31 08:59:09;;;;;;;;;;;;;;;21.19;64.28;101267.00;7281280;19;156694;-56
2022/10/31 09:01:36;;;;;;;;;;;;;;;21.19;64.42;101269.81;7281316;19;152301;-57
2022/10/31 09:04:03;;;;;;;;;;;;;;;21.20;64.28;101274.28;7281503;19;153114;-56
2022/10/31 09:06:30;;;;;;;;;;;;;;;21.22;64.40;101266.38;7279566;19;153166;-57
2022/10/31 09:08:57;;;;;;;;;;;;;;;21.22;64.47;101269.19;7283179;19;151591;-57
2022/10/31 09:11:24;;;;;;;;;;;;;;;21.23;64.65;101267.22;7280641;19;153258;-57
2022/10/31 09:13:52;;;;;;;;;;;;;;;21.23;64.17;101259.63;7280273;19;153782;-57
2022/10/31 09:16:19;;;;;;;;;;;;;;;21.26;64.60;101266.59;7282898;19;152140;-57
2022/10/31 09:18:46;;;;;;;;;;;;;;;21.25;64.31;101250.88;7285521;19;152663;-57
2022/10/31 09:21:13;;;;;;;;;;;;;;;21.28;64.21;101253.06;7282371;19;152386;-57
2022/10/31 09:23:40;;;;;;;;;;;;;;;21.30;64.18;101237.56;7282157;19;152573;-57
2022/10/31 09:26:07;;;;;;;;;;;;;;;21.33;64.06;101238.94;7279537;19;154169;-57
2022/10/31 09:28:35;;;;;;;;;;;;;;;21.33;64.05;101247.38;7278220;19;153040;-57
2022/10/31 09:31:02;;;;;;;;;;;;;;;21.34;64.39;101249.06;7282843;19;152640;-57
2022/10/31 09:33:29;;;;;;;;;;;;;;;21.37;63.91;101241.97;7280403;19;153718;-57
2022/10/31 09:35:57;;;;;;;;;;;;;;;21.38;64.31;101243.66;7280303;19;151883;-57
2022/10/31 09:38:24;;;;;;;;;;;;;;;21.38;64.11;101238.88;7281069;19;152678;-57
2022/10/31 09:40:55;;;;;;;;;;;;;;;21.39;64.29;101234.91;7286430;19;154024;-56
2022/10/31 09:43:25;;;;;;;;;;;;;;;21.39;63.80;101232.09;7276093;19;152792;-57
2022/10/31 09:45:52;;;;;;;;;;;;;;;21.40;64.22;101230.09;7279316;19;153148;-57
2022/10/31 09:48:20;;;;;;;;;;;;;;;21.40;64.03;101221.66;7280888;19;152459;-57
2022/10/31 09:50:51;;;;;;;;;;;;;;;21.40;64.15;101216.88;7279215;19;154675;-56
2022/10/31 09:53:21;;;;;;;;;;;;;;;21.41;63.87;101227.00;7276592;19;156778;-56
2022/10/31 09:55:50;;;;;;;;;;;;;;;21.41;63.89;101206.47;7279247;19;152350;-57
2022/10/31 09:58:19;;;;;;;;;;;;;;;21.41;63.66;101212.09;7276483;19;152762;-57
2022/10/31 10:00:48;;;;;;;;;;;;;;;21.42;63.93;101206.19;7285107;19;153285;-58
2022/10/31 10:03:16;;;;;;;;;;;;;;;21.42;63.54;101211.81;7293189;19;152305;-56
2022/10/31 10:05:47;;;;;;;;;;;;;;;21.43;64.06;101210.66;7285862;19;153688;-57
2022/10/31 10:08:16;;;;;;;;;;;;;;;21.41;63.62;101201.69;7284025;19;153207;-56
2022/10/31 10:10:47;;;;;;;;;;;;;;;21.43;63.65;101202.22;7287520;19;152426;-59
2022/10/31 10:13:15;;;;;;;;;;;;;;;21.43;64.06;101195.78;7282408;19;153152;-57
2022/10/31 10:15:45;;;;;;;;;;;;;;;21.43;63.72;101192.97;7286376;19;152012;-56
2022/10/31 10:18:12;;;;;;;;;;;;;;;21.43;63.68;101185.38;7286449;19;153299;-56
2022/10/31 10:20:46;;;;;;;;;;;;;;;21.43;63.75;101185.38;7285601;19;153749;-58
2022/10/31 10:23:16;;;;;;;;;;;;;;;21.43;63.60;101181.72;7292671;19;152164;-58
2022/10/31 10:25:46;;;;;;;;;;;;;;;21.44;63.42;101177.78;7284107;19;152752;-56
2022/10/31 10:28:13;;;;;;;;;;;;;;;21.42;63.74;101174.41;7279443;19;152707;-58
2022/10/31 10:30:43;;;;;;;;;;;;;;;21.43;63.37;101185.38;7287252;19;152644;-58
2022/10/31 10:33:13;;;;;;;;;;;;;;;21.41;63.37;101181.19;7284670;19;154073;-58
2022/10/31 10:35:43;;;;;;;;;;;;;;;21.42;63.20;101183.69;7286282;19;152034;-57
2022/10/31 10:38:13;;;;;;;;;;;;;;;21.41;63.56;101181.19;7285915;19;151976;-58
2022/10/31 10:40:40;;;;;;;;;;;;;;;21.41;63.40;101176.41;7285114;19;154231;-57
2022/10/31 10:48:11;;;;;;;;;;;;;;;21.41;63.71;101179.19;7282746;19;152699;-57
2022/10/31 10:50:42;;;;;;;;;;;;;;;21.43;63.18;101176.09;7287156;19;152581;-57
2022/10/31 10:53:09;;;;;;;;;;;;;;;21.42;63.19;101164.00;7280451;19;152726;-56
2022/10/31 10:55:40;;;;;;;;;;;;;;;21.41;63.36;101156.72;7285821;19;153595;-57
2022/10/31 10:58:08;;;;;;;;;;;;;;;21.42;63.61;101151.94;7282063;19;153744;-57
2022/10/31 11:00:36;;;;;;;;;;;;;;;21.42;63.47;101144.34;7285713;19;154499;-57
2022/10/31 11:03:04;;;;;;;;;;;;;;;21.42;63.42;101141.53;7283600;19;153365;-56
2022/10/31 11:05:34;;;;;;;;;;;;;;;21.43;63.12;101140.38;7284959;19;153820;-57
2022/10/31 11:08:01;;;;;;;;;;;;;;;21.43;63.33;101131.94;7290089;19;153316;-57
2022/10/31 11:10:28;;;;;;;;;;;;;;;21.42;63.12;101121.84;7283615;19;152580;-57
2022/10/31 11:12:59;;;;;;;;;;;;;;;21.42;63.36;101130.28;7280620;19;152698;-56
2022/10/31 11:15:27;;;;;;;;;;;;;;;21.44;63.44;101129.97;7284316;19;153909;-57
2022/10/31 11:17:55;;;;;;;;;;;;;;;21.43;63.28;101111.44;7283061;19;153129;-56
2022/10/31 11:20:25;;;;;;;;;;;;;;;21.44;62.92;101107.50;7284770;19;153190;-57
2022/10/31 11:23:00;;;;;;;;;;;;;;;21.41;62.94;101105.28;7283183;19;152559;-57
2022/10/31 11:25:27;;;;;;;;;;;;;;;21.41;63.14;101100.50;7284129;19;153008;-58
2022/10/31 11:27:57;;;;;;;;;;;;;;;21.41;63.10;101094.88;7279231;19;152502;-57
2022/10/31 11:30:24;;;;;;;;;;;;;;;21.37;63.08;101102.25;7292784;19;152389;-58
2022/10/31 11:32:52;;;;;;;;;;;;;;;21.39;63.29;101093.53;7280452;19;153185;-58
2022/10/31 11:35:20;;;;;;;;;;;;;;;21.39;62.86;101085.94;7286570;19;154480;-57
2022/10/31 11:37:49;;;;;;;;;;;;;;;21.38;63.26;101083.44;7284639;19;152258;-57
2022/10/31 11:40:20;;;;;;;;;;;;;;;21.38;63.37;101081.44;7284850;19;153219;-58
2022/10/31 11:42:48;;;;;;;;;;;;;;;21.36;63.14;101080.91;7280660;19;152671;-58
2022/10/31 11:45:16;;;;;;;;;;;;;;;21.36;62.89;101080.91;7285052;19;152553;-57
2022/10/31 11:47:46;;;;;;;;;;;;;;;21.34;63.28;101071.97;7279076;19;154123;-57
2022/10/31 11:50:19;;;;;;;;;;;;;;;21.32;62.81;101063.00;7282320;19;152268;-57
2022/10/31 11:52:46;;;;;;;;;;;;;;;21.36;61.51;101064.06;7289711;19;153086;-58
2022/10/31 11:55:15;;;;;;;;;;;;;;;21.34;60.97;101055.13;7283028;19;152186;-57
2022/10/31 11:57:45;;;;;;;;;;;;;;;21.35;61.06;101053.94;7282426;19;153068;-57
2022/10/31 12:00:20;;;;;;;;;;;;;;;21.33;60.88;101044.16;7276852;19;153937;-57
2022/10/31 12:02:47;;;;;;;;;;;;;;;21.30;60.15;101034.41;7282988;19;152795;-58
2022/10/31 12:05:19;;;;;;;;;;;;;;;21.30;60.44;101038.00;7279627;19;153506;-57
2022/10/31 12:07:48;;;;;;;;;;;;;;;21.28;60.90;101025.44;7280577;19;154473;-58
2022/10/31 12:10:19;;;;;;;;;;;;;;;21.27;61.44;101023.75;7283129;19;151859;-58
2022/10/31 12:12:53;;;;;;;;;;;;;;;21.27;61.32;101018.13;7279835;19;154838;-57
2022/10/31 12:15:26;;;;;;;;;;;;;;;21.25;61.59;101014.81;7289690;19;154563;-57
2022/10/31 12:18:02;;;;;;;;;;;;;;;21.24;61.64;101004.72;7282964;19;152709;-57
2022/10/31 12:20:39;;;;;;;;;;;;;;;21.21;61.65;101002.56;7280375;19;154121;-57
2022/10/31 12:23:09;;;;;;;;;;;;;;;21.21;61.89;101006.16;7281918;19;151634;-58
2022/10/31 12:25:43;;;;;;;;;;;;;;;21.21;61.94;101003.34;7283354;19;153791;-57
2022/10/31 12:28:27;;;;;;;;;;;;;;;21.23;61.79;100994.63;7276290;19;153968;-58
2022/10/31 12:31:13;;;;;;;;;;;;;;;21.22;61.70;100984.50;7280664;19;152136;-57
2022/10/31 12:33:53;;;;;;;;;;;;;;;21.23;62.02;100969.34;7282180;19;152633;-57
2022/10/31 12:36:29;;;;;;;;;;;;;;;21.22;62.07;100962.03;7288167;19;154161;-57
2022/10/31 12:39:06;;;;;;;;;;;;;;;21.20;61.82;100959.56;7281054;19;152982;-57